sensor_id;sensor_type;location;lat;lon;timestamp;P1;durP1;ratioP1;P2;durP2;ratioP2
434;SDS011;204;48.942;9.256;2022-09-14T00:00:53;3.07;;;2.90;;
434;SDS011;204;48.942;9.256;2022-09-14T00:03:19;2.90;;;2.70;;
434;SDS011;204;48.942;9.256;2022-09-14T00:05:45;4.53;;;3.40;;
434;SDS011;204;48.942;9.256;2022-09-14T00:08:10;4.00;;;3.80;;
434;SDS011;204;48.942;9.256;2022-09-14T00:10:38;3.73;;;3.53;;
434;SDS011;204;48.942;9.256;2022-09-14T00:13:08;3.30;;;3.13;;
434;SDS011;204;48.942;9.256;2022-09-14T00:15:36;4.47;;;3.10;;
434;SDS011;204;48.942;9.256;2022-09-14T00:18:03;3.50;;;3.30;;
434;SDS011;204;48.942;9.256;2022-09-14T00:20:29;4.77;;;3.07;;
434;SDS011;204;48.942;9.256;2022-09-14T00:22:55;3.30;;;3.10;;
434;SDS011;204;48.942;9.256;2022-09-14T00:25:22;3.97;;;3.33;;
434;SDS011;204;48.942;9.256;2022-09-14T00:27:47;4.33;;;3.27;;
434;SDS011;204;48.942;9.256;2022-09-14T00:30:13;5.17;;;3.10;;
434;SDS011;204;48.942;9.256;2022-09-14T00:32:38;3.73;;;3.03;;
434;SDS011;204;48.942;9.256;2022-09-14T00:35:04;3.80;;;3.00;;
434;SDS011;204;48.942;9.256;2022-09-14T00:37:30;3.50;;;3.23;;
434;SDS011;204;48.942;9.256;2022-09-14T00:39:56;3.47;;;3.30;;
434;SDS011;204;48.942;9.256;2022-09-14T00:42:21;5.40;;;3.40;;
434;SDS011;204;48.942;9.256;2022-09-14T00:47:13;3.77;;;3.57;;
434;SDS011;204;48.942;9.256;2022-09-14T00:49:41;5.63;;;3.60;;
434;SDS011;204;48.942;9.256;2022-09-14T00:54:36;4.30;;;3.40;;
434;SDS011;204;48.942;9.256;2022-09-14T00:57:09;5.23;;;3.23;;
434;SDS011;204;48.942;9.256;2022-09-14T00:59:36;3.90;;;3.30;;
434;SDS011;204;48.942;9.256;2022-09-14T01:02:04;4.83;;;3.67;;
434;SDS011;204;48.942;9.256;2022-09-14T01:04:33;4.77;;;3.40;;
434;SDS011;204;48.942;9.256;2022-09-14T01:09:39;3.87;;;3.57;;
434;SDS011;204;48.942;9.256;2022-09-14T01:21:27;4.93;;;3.90;;
434;SDS011;204;48.942;9.256;2022-09-14T01:24:03;3.63;;;2.87;;
434;SDS011;204;48.942;9.256;2022-09-14T01:32:20;3.07;;;2.87;;
434;SDS011;204;48.942;9.256;2022-09-14T01:37:44;3.23;;;3.03;;
434;SDS011;204;48.942;9.256;2022-09-14T01:45:54;3.90;;;3.43;;
434;SDS011;204;48.942;9.256;2022-09-14T01:48:26;6.77;;;2.80;;
434;SDS011;204;48.942;9.256;2022-09-14T01:50:58;3.77;;;3.60;;
434;SDS011;204;48.942;9.256;2022-09-14T01:53:43;3.60;;;3.37;;
434;SDS011;204;48.942;9.256;2022-09-14T01:56:17;5.53;;;4.60;;
434;SDS011;204;48.942;9.256;2022-09-14T01:59:10;8.97;;;5.73;;
434;SDS011;204;48.942;9.256;2022-09-14T02:01:38;8.10;;;4.90;;
434;SDS011;204;48.942;9.256;2022-09-14T02:04:10;7.10;;;5.07;;
434;SDS011;204;48.942;9.256;2022-09-14T02:06:42;7.57;;;4.50;;
434;SDS011;204;48.942;9.256;2022-09-14T02:09:11;6.43;;;5.00;;
434;SDS011;204;48.942;9.256;2022-09-14T02:11:40;11.70;;;6.57;;
434;SDS011;204;48.942;9.256;2022-09-14T02:14:06;11.10;;;6.67;;
434;SDS011;204;48.942;9.256;2022-09-14T02:16:32;6.33;;;4.93;;
434;SDS011;204;48.942;9.256;2022-09-14T02:18:58;8.40;;;5.23;;
434;SDS011;204;48.942;9.256;2022-09-14T02:21:26;6.33;;;4.60;;
434;SDS011;204;48.942;9.256;2022-09-14T02:23:55;7.80;;;5.40;;
434;SDS011;204;48.942;9.256;2022-09-14T02:26:22;4.80;;;4.50;;
434;SDS011;204;48.942;9.256;2022-09-14T02:28:48;8.30;;;5.70;;
434;SDS011;204;48.942;9.256;2022-09-14T02:34:02;8.97;;;5.50;;
434;SDS011;204;48.942;9.256;2022-09-14T02:50:15;8.00;;;6.57;;
434;SDS011;204;48.942;9.256;2022-09-14T02:55:36;8.23;;;7.00;;
434;SDS011;204;48.942;9.256;2022-09-14T02:58:10;12.13;;;6.93;;
434;SDS011;204;48.942;9.256;2022-09-14T03:00:38;7.00;;;5.97;;
434;SDS011;204;48.942;9.256;2022-09-14T03:03:05;8.57;;;6.57;;
434;SDS011;204;48.942;9.256;2022-09-14T03:05:32;6.50;;;6.13;;
434;SDS011;204;48.942;9.256;2022-09-14T03:07:58;6.73;;;6.30;;
434;SDS011;204;48.942;9.256;2022-09-14T03:10:25;7.77;;;6.10;;
434;SDS011;204;48.942;9.256;2022-09-14T03:12:51;7.93;;;6.30;;
434;SDS011;204;48.942;9.256;2022-09-14T03:15:16;7.40;;;7.00;;
434;SDS011;204;48.942;9.256;2022-09-14T03:17:45;5.60;;;5.30;;
434;SDS011;204;48.942;9.256;2022-09-14T03:20:13;7.03;;;6.17;;
434;SDS011;204;48.942;9.256;2022-09-14T03:22:39;6.63;;;6.23;;
434;SDS011;204;48.942;9.256;2022-09-14T03:25:05;7.47;;;6.40;;
434;SDS011;204;48.942;9.256;2022-09-14T03:27:31;7.17;;;6.77;;
434;SDS011;204;48.942;9.256;2022-09-14T03:29:57;7.07;;;6.67;;
434;SDS011;204;48.942;9.256;2022-09-14T03:32:22;5.93;;;5.50;;
434;SDS011;204;48.942;9.256;2022-09-14T03:34:48;8.00;;;6.73;;
434;SDS011;204;48.942;9.256;2022-09-14T03:37:13;7.03;;;6.63;;
434;SDS011;204;48.942;9.256;2022-09-14T03:39:39;6.20;;;5.67;;
434;SDS011;204;48.942;9.256;2022-09-14T03:42:05;9.67;;;6.47;;
434;SDS011;204;48.942;9.256;2022-09-14T03:44:30;6.97;;;6.60;;
434;SDS011;204;48.942;9.256;2022-09-14T03:46:57;6.63;;;6.03;;
434;SDS011;204;48.942;9.256;2022-09-14T03:49:22;6.57;;;6.17;;
434;SDS011;204;48.942;9.256;2022-09-14T03:51:48;7.70;;;5.50;;
434;SDS011;204;48.942;9.256;2022-09-14T03:54:13;7.20;;;6.80;;
434;SDS011;204;48.942;9.256;2022-09-14T03:56:39;7.60;;;6.73;;
434;SDS011;204;48.942;9.256;2022-09-14T03:59:07;9.67;;;6.20;;
434;SDS011;204;48.942;9.256;2022-09-14T04:01:33;6.47;;;6.07;;
434;SDS011;204;48.942;9.256;2022-09-14T04:03:58;7.80;;;6.60;;
434;SDS011;204;48.942;9.256;2022-09-14T04:06:24;7.50;;;6.50;;
434;SDS011;204;48.942;9.256;2022-09-14T04:08:50;6.50;;;6.10;;
434;SDS011;204;48.942;9.256;2022-09-14T04:11:20;7.87;;;6.07;;
434;SDS011;204;48.942;9.256;2022-09-14T04:13:47;7.30;;;6.20;;
434;SDS011;204;48.942;9.256;2022-09-14T04:16:14;6.70;;;6.30;;
434;SDS011;204;48.942;9.256;2022-09-14T04:18:40;7.13;;;6.73;;
434;SDS011;204;48.942;9.256;2022-09-14T04:21:07;6.40;;;6.00;;
434;SDS011;204;48.942;9.256;2022-09-14T04:23:41;7.87;;;6.60;;
434;SDS011;204;48.942;9.256;2022-09-14T04:26:13;7.50;;;7.10;;
434;SDS011;204;48.942;9.256;2022-09-14T04:28:42;6.80;;;5.80;;
434;SDS011;204;48.942;9.256;2022-09-14T04:31:09;8.00;;;6.20;;
434;SDS011;204;48.942;9.256;2022-09-14T04:33:36;7.90;;;7.50;;
434;SDS011;204;48.942;9.256;2022-09-14T04:36:07;8.57;;;7.27;;
434;SDS011;204;48.942;9.256;2022-09-14T04:38:35;8.50;;;6.57;;
434;SDS011;204;48.942;9.256;2022-09-14T04:41:05;8.60;;;7.70;;
434;SDS011;204;48.942;9.256;2022-09-14T04:43:33;7.50;;;7.00;;
434;SDS011;204;48.942;9.256;2022-09-14T04:46:03;8.00;;;6.77;;
434;SDS011;204;48.942;9.256;2022-09-14T04:48:31;6.90;;;6.50;;
434;SDS011;204;48.942;9.256;2022-09-14T04:51:02;8.00;;;6.60;;
434;SDS011;204;48.942;9.256;2022-09-14T04:53:29;6.70;;;6.30;;
434;SDS011;204;48.942;9.256;2022-09-14T04:55:58;7.10;;;6.70;;
434;SDS011;204;48.942;9.256;2022-09-14T04:58:25;7.53;;;7.13;;
434;SDS011;204;48.942;9.256;2022-09-14T05:00:52;7.30;;;6.73;;
434;SDS011;204;48.942;9.256;2022-09-14T05:03:19;8.70;;;8.20;;
434;SDS011;204;48.942;9.256;2022-09-14T05:05:45;11.13;;;10.30;;
434;SDS011;204;48.942;9.256;2022-09-14T05:08:11;10.77;;;10.17;;
434;SDS011;204;48.942;9.256;2022-09-14T05:10:36;12.83;;;12.13;;
434;SDS011;204;48.942;9.256;2022-09-14T05:13:02;12.87;;;12.17;;
434;SDS011;204;48.942;9.256;2022-09-14T05:15:27;13.57;;;12.87;;
434;SDS011;204;48.942;9.256;2022-09-14T05:17:53;14.27;;;13.57;;
434;SDS011;204;48.942;9.256;2022-09-14T05:20:18;17.37;;;16.47;;
434;SDS011;204;48.942;9.256;2022-09-14T05:22:47;18.13;;;17.23;;
434;SDS011;204;48.942;9.256;2022-09-14T05:25:13;18.03;;;17.13;;
434;SDS011;204;48.942;9.256;2022-09-14T05:27:39;18.33;;;17.43;;
434;SDS011;204;48.942;9.256;2022-09-14T05:30:05;19.57;;;18.57;;
434;SDS011;204;48.942;9.256;2022-09-14T05:32:31;20.73;;;19.37;;
434;SDS011;204;48.942;9.256;2022-09-14T05:34:56;23.43;;;21.57;;
434;SDS011;204;48.942;9.256;2022-09-14T05:37:22;21.33;;;20.23;;
434;SDS011;204;48.942;9.256;2022-09-14T05:39:48;21.90;;;20.83;;
434;SDS011;204;48.942;9.256;2022-09-14T05:42:13;21.57;;;20.47;;
434;SDS011;204;48.942;9.256;2022-09-14T05:44:39;25.30;;;24.00;;
434;SDS011;204;48.942;9.256;2022-09-14T05:47:04;32.80;;;23.93;;
434;SDS011;204;48.942;9.256;2022-09-14T05:49:30;23.07;;;21.93;;
434;SDS011;204;48.942;9.256;2022-09-14T05:51:55;22.43;;;21.17;;
434;SDS011;204;48.942;9.256;2022-09-14T05:54:21;20.03;;;19.03;;
434;SDS011;204;48.942;9.256;2022-09-14T05:56:47;20.20;;;19.20;;
434;SDS011;204;48.942;9.256;2022-09-14T05:59:12;20.60;;;19.60;;
434;SDS011;204;48.942;9.256;2022-09-14T06:01:38;18.97;;;18.00;;
434;SDS011;204;48.942;9.256;2022-09-14T06:04:04;20.87;;;19.87;;
434;SDS011;204;48.942;9.256;2022-09-14T06:06:30;19.40;;;18.40;;
434;SDS011;204;48.942;9.256;2022-09-14T06:08:56;21.60;;;20.50;;
434;SDS011;204;48.942;9.256;2022-09-14T06:11:23;18.50;;;17.60;;
434;SDS011;204;48.942;9.256;2022-09-14T06:13:54;23.57;;;18.73;;
434;SDS011;204;48.942;9.256;2022-09-14T06:16:21;17.77;;;16.87;;
434;SDS011;204;48.942;9.256;2022-09-14T06:18:48;20.00;;;18.13;;
434;SDS011;204;48.942;9.256;2022-09-14T06:21:16;19.50;;;18.13;;
434;SDS011;204;48.942;9.256;2022-09-14T06:23:43;17.90;;;17.00;;
434;SDS011;204;48.942;9.256;2022-09-14T06:26:10;19.43;;;17.73;;
434;SDS011;204;48.942;9.256;2022-09-14T06:28:36;22.17;;;17.57;;
434;SDS011;204;48.942;9.256;2022-09-14T06:31:02;19.93;;;15.77;;
434;SDS011;204;48.942;9.256;2022-09-14T06:33:31;15.90;;;15.10;;
434;SDS011;204;48.942;9.256;2022-09-14T06:35:58;15.70;;;14.90;;
434;SDS011;204;48.942;9.256;2022-09-14T06:38:25;19.63;;;15.13;;
434;SDS011;204;48.942;9.256;2022-09-14T06:40:53;15.70;;;14.90;;
434;SDS011;204;48.942;9.256;2022-09-14T06:43:20;16.47;;;14.03;;
434;SDS011;204;48.942;9.256;2022-09-14T06:48:25;14.80;;;14.03;;
434;SDS011;204;48.942;9.256;2022-09-14T06:50:55;15.07;;;14.27;;
434;SDS011;204;48.942;9.256;2022-09-14T06:53:21;14.50;;;13.80;;
434;SDS011;204;48.942;9.256;2022-09-14T06:55:46;14.17;;;13.47;;
434;SDS011;204;48.942;9.256;2022-09-14T06:58:12;12.87;;;12.10;;
434;SDS011;204;48.942;9.256;2022-09-14T07:00:38;13.10;;;12.40;;
434;SDS011;204;48.942;9.256;2022-09-14T07:03:04;12.13;;;11.53;;
434;SDS011;204;48.942;9.256;2022-09-14T07:05:30;13.13;;;12.10;;
434;SDS011;204;48.942;9.256;2022-09-14T07:07:56;12.00;;;10.37;;
434;SDS011;204;48.942;9.256;2022-09-14T07:10:22;13.47;;;10.80;;
434;SDS011;204;48.942;9.256;2022-09-14T07:12:52;10.07;;;9.60;;
434;SDS011;204;48.942;9.256;2022-09-14T07:15:23;11.50;;;10.90;;
434;SDS011;204;48.942;9.256;2022-09-14T07:17:48;9.50;;;9.00;;
434;SDS011;204;48.942;9.256;2022-09-14T07:20:14;9.07;;;8.57;;
434;SDS011;204;48.942;9.256;2022-09-14T07:22:40;11.50;;;10.10;;
434;SDS011;204;48.942;9.256;2022-09-14T07:25:06;9.47;;;8.97;;
434;SDS011;204;48.942;9.256;2022-09-14T07:27:33;9.73;;;9.23;;
434;SDS011;204;48.942;9.256;2022-09-14T07:29:59;8.67;;;8.20;;
434;SDS011;204;48.942;9.256;2022-09-14T07:32:25;8.50;;;8.03;;
434;SDS011;204;48.942;9.256;2022-09-14T07:34:51;8.93;;;7.90;;
434;SDS011;204;48.942;9.256;2022-09-14T07:37:16;8.67;;;7.70;;
434;SDS011;204;48.942;9.256;2022-09-14T07:39:42;8.47;;;8.00;;
434;SDS011;204;48.942;9.256;2022-09-14T07:42:07;9.40;;;8.50;;
434;SDS011;204;48.942;9.256;2022-09-14T07:44:33;9.33;;;7.83;;
434;SDS011;204;48.942;9.256;2022-09-14T07:46:59;8.50;;;8.00;;
434;SDS011;204;48.942;9.256;2022-09-14T07:49:24;8.53;;;7.20;;
434;SDS011;204;48.942;9.256;2022-09-14T07:51:51;7.50;;;7.10;;
434;SDS011;204;48.942;9.256;2022-09-14T07:54:17;8.73;;;7.03;;
434;SDS011;204;48.942;9.256;2022-09-14T07:56:43;8.70;;;7.40;;
434;SDS011;204;48.942;9.256;2022-09-14T07:59:09;8.17;;;7.77;;
434;SDS011;204;48.942;9.256;2022-09-14T08:01:36;7.87;;;7.33;;
434;SDS011;204;48.942;9.256;2022-09-14T08:04:02;7.70;;;7.30;;
434;SDS011;204;48.942;9.256;2022-09-14T08:06:28;7.93;;;7.50;;
434;SDS011;204;48.942;9.256;2022-09-14T08:08:54;7.33;;;6.93;;
434;SDS011;204;48.942;9.256;2022-09-14T08:11:28;9.90;;;7.63;;
434;SDS011;204;48.942;9.256;2022-09-14T08:13:55;7.77;;;7.33;;
434;SDS011;204;48.942;9.256;2022-09-14T08:16:27;7.57;;;7.17;;
434;SDS011;204;48.942;9.256;2022-09-14T08:18:54;8.30;;;7.30;;
434;SDS011;204;48.942;9.256;2022-09-14T08:21:25;7.70;;;6.30;;
434;SDS011;204;48.942;9.256;2022-09-14T08:23:51;8.80;;;6.30;;
434;SDS011;204;48.942;9.256;2022-09-14T08:26:18;9.70;;;6.43;;
434;SDS011;204;48.942;9.256;2022-09-14T08:28:46;6.67;;;6.23;;
434;SDS011;204;48.942;9.256;2022-09-14T08:31:14;8.17;;;6.20;;
434;SDS011;204;48.942;9.256;2022-09-14T08:33:46;7.13;;;6.57;;
434;SDS011;204;48.942;9.256;2022-09-14T08:36:15;9.60;;;7.40;;
434;SDS011;204;48.942;9.256;2022-09-14T08:38:42;8.43;;;7.17;;
434;SDS011;204;48.942;9.256;2022-09-14T08:43:48;10.70;;;6.67;;
434;SDS011;204;48.942;9.256;2022-09-14T08:48:58;7.47;;;6.20;;
434;SDS011;204;48.942;9.256;2022-09-14T08:51:26;7.60;;;7.07;;
434;SDS011;204;48.942;9.256;2022-09-14T08:53:52;6.43;;;6.03;;
434;SDS011;204;48.942;9.256;2022-09-14T08:56:23;7.50;;;6.70;;
434;SDS011;204;48.942;9.256;2022-09-14T08:59:06;7.37;;;6.97;;
434;SDS011;204;48.942;9.256;2022-09-14T09:09:49;7.13;;;6.20;;
434;SDS011;204;48.942;9.256;2022-09-14T09:12:20;6.97;;;6.50;;
434;SDS011;204;48.942;9.256;2022-09-14T09:14:49;6.13;;;5.83;;
434;SDS011;204;48.942;9.256;2022-09-14T09:17:27;8.07;;;4.97;;
434;SDS011;204;48.942;9.256;2022-09-14T09:25:23;8.80;;;4.03;;
434;SDS011;204;48.942;9.256;2022-09-14T09:27:53;5.80;;;3.97;;
434;SDS011;204;48.942;9.256;2022-09-14T09:30:26;4.67;;;4.37;;
434;SDS011;204;48.942;9.256;2022-09-14T09:32:53;5.83;;;5.10;;
434;SDS011;204;48.942;9.256;2022-09-14T09:35:21;5.17;;;3.97;;
434;SDS011;204;48.942;9.256;2022-09-14T09:37:48;6.50;;;4.63;;
434;SDS011;204;48.942;9.256;2022-09-14T09:40:31;5.07;;;4.43;;
434;SDS011;204;48.942;9.256;2022-09-14T09:43:13;6.40;;;4.73;;
434;SDS011;204;48.942;9.256;2022-09-14T09:45:47;6.30;;;4.73;;
434;SDS011;204;48.942;9.256;2022-09-14T09:48:14;5.60;;;4.93;;
434;SDS011;204;48.942;9.256;2022-09-14T09:53:54;5.27;;;4.97;;
434;SDS011;204;48.942;9.256;2022-09-14T09:56:39;5.63;;;4.33;;
434;SDS011;204;48.942;9.256;2022-09-14T09:59:36;6.43;;;3.77;;
434;SDS011;204;48.942;9.256;2022-09-14T10:07:27;3.97;;;3.77;;
434;SDS011;204;48.942;9.256;2022-09-14T10:09:55;6.30;;;4.03;;
434;SDS011;204;48.942;9.256;2022-09-14T10:12:21;4.50;;;3.50;;
434;SDS011;204;48.942;9.256;2022-09-14T10:14:47;3.70;;;2.80;;
434;SDS011;204;48.942;9.256;2022-09-14T10:17:18;4.30;;;3.43;;
434;SDS011;204;48.942;9.256;2022-09-14T10:19:46;5.80;;;3.13;;
434;SDS011;204;48.942;9.256;2022-09-14T10:24:56;7.57;;;3.33;;
434;SDS011;204;48.942;9.256;2022-09-14T10:27:32;6.50;;;3.03;;
434;SDS011;204;48.942;9.256;2022-09-14T10:30:12;3.30;;;2.83;;
434;SDS011;204;48.942;9.256;2022-09-14T10:32:42;2.90;;;2.20;;
434;SDS011;204;48.942;9.256;2022-09-14T10:46:18;3.13;;;2.80;;
434;SDS011;204;48.942;9.256;2022-09-14T10:56:45;3.17;;;2.30;;
434;SDS011;204;48.942;9.256;2022-09-14T11:05:13;2.77;;;2.37;;
434;SDS011;204;48.942;9.256;2022-09-14T11:10:16;3.60;;;2.30;;
434;SDS011;204;48.942;9.256;2022-09-14T11:15:31;3.63;;;2.67;;
434;SDS011;204;48.942;9.256;2022-09-14T11:23:48;3.03;;;2.30;;
434;SDS011;204;48.942;9.256;2022-09-14T11:28:58;4.67;;;2.40;;
434;SDS011;204;48.942;9.256;2022-09-14T11:34:29;1.90;;;1.67;;
434;SDS011;204;48.942;9.256;2022-09-14T11:37:13;4.90;;;2.00;;
434;SDS011;204;48.942;9.256;2022-09-14T11:39:43;3.27;;;2.27;;
434;SDS011;204;48.942;9.256;2022-09-14T11:42:14;2.10;;;1.70;;
434;SDS011;204;48.942;9.256;2022-09-14T11:44:53;4.93;;;3.10;;
434;SDS011;204;48.942;9.256;2022-09-14T11:47:43;2.17;;;2.00;;
434;SDS011;204;48.942;9.256;2022-09-14T11:52:46;4.90;;;2.50;;
434;SDS011;204;48.942;9.256;2022-09-14T11:55:19;2.40;;;1.70;;
434;SDS011;204;48.942;9.256;2022-09-14T11:57:45;3.90;;;2.13;;
434;SDS011;204;48.942;9.256;2022-09-14T12:03:17;2.50;;;2.30;;
434;SDS011;204;48.942;9.256;2022-09-14T12:05:45;2.87;;;2.43;;
434;SDS011;204;48.942;9.256;2022-09-14T12:11:03;4.20;;;2.37;;
434;SDS011;204;48.942;9.256;2022-09-14T12:13:32;5.53;;;2.30;;
434;SDS011;204;48.942;9.256;2022-09-14T12:16:04;1.87;;;1.63;;
434;SDS011;204;48.942;9.256;2022-09-14T12:18:32;2.87;;;2.67;;
434;SDS011;204;48.942;9.256;2022-09-14T12:23:45;2.90;;;2.27;;
434;SDS011;204;48.942;9.256;2022-09-14T12:28:45;4.73;;;1.87;;
434;SDS011;204;48.942;9.256;2022-09-14T12:43:59;3.20;;;2.30;;
434;SDS011;204;48.942;9.256;2022-09-14T12:46:32;3.37;;;1.93;;
434;SDS011;204;48.942;9.256;2022-09-14T12:49:03;5.37;;;2.00;;
434;SDS011;204;48.942;9.256;2022-09-14T12:51:46;3.10;;;1.97;;
434;SDS011;204;48.942;9.256;2022-09-14T12:54:21;6.90;;;2.67;;
434;SDS011;204;48.942;9.256;2022-09-14T13:00:18;3.07;;;2.03;;
434;SDS011;204;48.942;9.256;2022-09-14T13:05:22;5.20;;;2.40;;
434;SDS011;204;48.942;9.256;2022-09-14T13:07:50;3.33;;;2.97;;
434;SDS011;204;48.942;9.256;2022-09-14T13:10:30;4.93;;;3.63;;
434;SDS011;204;48.942;9.256;2022-09-14T13:13:02;2.60;;;2.47;;
434;SDS011;204;48.942;9.256;2022-09-14T13:15:35;3.50;;;2.60;;
434;SDS011;204;48.942;9.256;2022-09-14T13:20:49;7.60;;;3.17;;
434;SDS011;204;48.942;9.256;2022-09-14T13:23:26;5.30;;;2.60;;
434;SDS011;204;48.942;9.256;2022-09-14T13:25:52;3.40;;;3.20;;
434;SDS011;204;48.942;9.256;2022-09-14T13:28:18;3.33;;;2.83;;
434;SDS011;204;48.942;9.256;2022-09-14T13:30:57;4.10;;;3.03;;
434;SDS011;204;48.942;9.256;2022-09-14T13:33:25;4.37;;;3.70;;
434;SDS011;204;48.942;9.256;2022-09-14T13:36:01;10.70;;;4.10;;
434;SDS011;204;48.942;9.256;2022-09-14T13:38:31;6.90;;;4.13;;
434;SDS011;204;48.942;9.256;2022-09-14T13:41:07;4.53;;;2.93;;
434;SDS011;204;48.942;9.256;2022-09-14T13:43:35;6.53;;;3.87;;
434;SDS011;204;48.942;9.256;2022-09-14T13:46:04;7.27;;;3.53;;
434;SDS011;204;48.942;9.256;2022-09-14T13:48:32;4.33;;;3.60;;
434;SDS011;204;48.942;9.256;2022-09-14T13:50:59;5.40;;;3.70;;
434;SDS011;204;48.942;9.256;2022-09-14T13:59:38;4.00;;;3.30;;
434;SDS011;204;48.942;9.256;2022-09-14T14:04:29;6.23;;;3.60;;
434;SDS011;204;48.942;9.256;2022-09-14T14:09:52;5.40;;;3.40;;
434;SDS011;204;48.942;9.256;2022-09-14T14:12:35;4.87;;;3.53;;
434;SDS011;204;48.942;9.256;2022-09-14T14:15:04;3.50;;;3.30;;
434;SDS011;204;48.942;9.256;2022-09-14T14:17:50;3.67;;;2.67;;
434;SDS011;204;48.942;9.256;2022-09-14T14:25:38;5.63;;;3.60;;
434;SDS011;204;48.942;9.256;2022-09-14T14:28:14;3.90;;;2.93;;
434;SDS011;204;48.942;9.256;2022-09-14T14:30:47;4.73;;;3.17;;
434;SDS011;204;48.942;9.256;2022-09-14T14:33:14;5.73;;;2.67;;
434;SDS011;204;48.942;9.256;2022-09-14T14:35:43;3.40;;;2.53;;
434;SDS011;204;48.942;9.256;2022-09-14T14:38:10;7.40;;;2.43;;
434;SDS011;204;48.942;9.256;2022-09-14T14:40:36;3.60;;;2.70;;
434;SDS011;204;48.942;9.256;2022-09-14T14:43:03;2.57;;;2.37;;
434;SDS011;204;48.942;9.256;2022-09-14T14:45:30;2.60;;;2.40;;
434;SDS011;204;48.942;9.256;2022-09-14T14:47:57;4.40;;;2.43;;
434;SDS011;204;48.942;9.256;2022-09-14T14:50:24;3.23;;;2.43;;
434;SDS011;204;48.942;9.256;2022-09-14T14:52:52;2.63;;;2.40;;
434;SDS011;204;48.942;9.256;2022-09-14T14:55:18;2.37;;;2.17;;
434;SDS011;204;48.942;9.256;2022-09-14T14:57:45;2.37;;;2.17;;
434;SDS011;204;48.942;9.256;2022-09-14T15:00:14;5.20;;;2.70;;
434;SDS011;204;48.942;9.256;2022-09-14T15:02:41;3.50;;;1.97;;
434;SDS011;204;48.942;9.256;2022-09-14T15:05:08;5.80;;;2.03;;
434;SDS011;204;48.942;9.256;2022-09-14T15:07:34;2.20;;;1.93;;
434;SDS011;204;48.942;9.256;2022-09-14T15:10:00;2.20;;;2.00;;
434;SDS011;204;48.942;9.256;2022-09-14T15:12:25;1.73;;;1.43;;
434;SDS011;204;48.942;9.256;2022-09-14T15:14:51;3.37;;;1.87;;
434;SDS011;204;48.942;9.256;2022-09-14T15:17:16;2.77;;;2.00;;
434;SDS011;204;48.942;9.256;2022-09-14T15:19:42;1.97;;;1.90;;
434;SDS011;204;48.942;9.256;2022-09-14T15:22:09;3.17;;;1.83;;
434;SDS011;204;48.942;9.256;2022-09-14T15:24:35;2.43;;;1.90;;
434;SDS011;204;48.942;9.256;2022-09-14T15:27:00;3.87;;;2.37;;
434;SDS011;204;48.942;9.256;2022-09-14T15:29:26;2.97;;;1.60;;
434;SDS011;204;48.942;9.256;2022-09-14T15:31:52;3.53;;;1.93;;
434;SDS011;204;48.942;9.256;2022-09-14T15:34:18;2.60;;;2.40;;
434;SDS011;204;48.942;9.256;2022-09-14T15:36:44;4.00;;;2.30;;
434;SDS011;204;48.942;9.256;2022-09-14T15:39:14;2.17;;;1.90;;
434;SDS011;204;48.942;9.256;2022-09-14T15:41:41;3.63;;;2.37;;
434;SDS011;204;48.942;9.256;2022-09-14T15:44:07;3.60;;;2.40;;
434;SDS011;204;48.942;9.256;2022-09-14T15:46:35;2.30;;;1.50;;
434;SDS011;204;48.942;9.256;2022-09-14T15:49:03;3.67;;;2.50;;
434;SDS011;204;48.942;9.256;2022-09-14T15:51:30;3.37;;;2.00;;
434;SDS011;204;48.942;9.256;2022-09-14T15:53:57;1.67;;;1.60;;
434;SDS011;204;48.942;9.256;2022-09-14T15:56:23;2.77;;;2.13;;
434;SDS011;204;48.942;9.256;2022-09-14T15:58:48;4.37;;;1.70;;
434;SDS011;204;48.942;9.256;2022-09-14T16:01:15;2.27;;;2.00;;
434;SDS011;204;48.942;9.256;2022-09-14T16:03:42;2.20;;;1.50;;
434;SDS011;204;48.942;9.256;2022-09-14T16:06:08;2.67;;;1.73;;
434;SDS011;204;48.942;9.256;2022-09-14T16:08:36;1.77;;;1.67;;
434;SDS011;204;48.942;9.256;2022-09-14T16:11:02;2.10;;;1.53;;
434;SDS011;204;48.942;9.256;2022-09-14T16:13:28;8.10;;;2.00;;
434;SDS011;204;48.942;9.256;2022-09-14T16:16:27;2.03;;;1.80;;
434;SDS011;204;48.942;9.256;2022-09-14T16:18:46;2.90;;;2.03;;
434;SDS011;204;48.942;9.256;2022-09-14T16:21:18;6.73;;;1.93;;
434;SDS011;204;48.942;9.256;2022-09-14T16:23:47;2.83;;;1.43;;
434;SDS011;204;48.942;9.256;2022-09-14T16:26:17;1.60;;;1.50;;
434;SDS011;204;48.942;9.256;2022-09-14T16:28:45;3.33;;;1.90;;
434;SDS011;204;48.942;9.256;2022-09-14T16:31:13;2.03;;;1.37;;
434;SDS011;204;48.942;9.256;2022-09-14T16:33:42;2.60;;;1.30;;
434;SDS011;204;48.942;9.256;2022-09-14T16:36:11;1.50;;;1.40;;
434;SDS011;204;48.942;9.256;2022-09-14T16:38:38;3.50;;;1.57;;
434;SDS011;204;48.942;9.256;2022-09-14T16:41:05;2.13;;;1.70;;
434;SDS011;204;48.942;9.256;2022-09-14T16:43:31;1.80;;;1.77;;
434;SDS011;204;48.942;9.256;2022-09-14T16:48:26;2.30;;;1.90;;
434;SDS011;204;48.942;9.256;2022-09-14T16:50:52;2.70;;;2.27;;
434;SDS011;204;48.942;9.256;2022-09-14T16:53:18;2.97;;;1.90;;
434;SDS011;204;48.942;9.256;2022-09-14T16:55:44;4.00;;;2.33;;
434;SDS011;204;48.942;9.256;2022-09-14T16:58:10;4.17;;;2.07;;
434;SDS011;204;48.942;9.256;2022-09-14T17:00:35;5.10;;;1.93;;
434;SDS011;204;48.942;9.256;2022-09-14T17:03:01;2.57;;;1.73;;
434;SDS011;204;48.942;9.256;2022-09-14T17:05:27;3.10;;;2.30;;
434;SDS011;204;48.942;9.256;2022-09-14T17:07:52;2.90;;;1.70;;
434;SDS011;204;48.942;9.256;2022-09-14T17:10:18;3.90;;;2.00;;
434;SDS011;204;48.942;9.256;2022-09-14T17:12:44;3.07;;;2.30;;
434;SDS011;204;48.942;9.256;2022-09-14T17:15:10;2.40;;;1.60;;
434;SDS011;204;48.942;9.256;2022-09-14T17:17:37;3.23;;;1.63;;
434;SDS011;204;48.942;9.256;2022-09-14T17:20:02;1.47;;;1.40;;
434;SDS011;204;48.942;9.256;2022-09-14T17:22:28;2.47;;;1.73;;
434;SDS011;204;48.942;9.256;2022-09-14T17:24:54;2.53;;;1.80;;
434;SDS011;204;48.942;9.256;2022-09-14T17:27:19;2.53;;;2.30;;
434;SDS011;204;48.942;9.256;2022-09-14T17:29:45;3.40;;;1.73;;
434;SDS011;204;48.942;9.256;2022-09-14T17:32:12;2.13;;;1.90;;
434;SDS011;204;48.942;9.256;2022-09-14T17:34:38;3.10;;;2.10;;
434;SDS011;204;48.942;9.256;2022-09-14T17:37:03;4.73;;;2.10;;
434;SDS011;204;48.942;9.256;2022-09-14T17:39:29;2.30;;;1.70;;
434;SDS011;204;48.942;9.256;2022-09-14T17:41:55;4.27;;;2.30;;
434;SDS011;204;48.942;9.256;2022-09-14T17:44:21;2.00;;;1.90;;
434;SDS011;204;48.942;9.256;2022-09-14T17:46:49;3.17;;;2.03;;
434;SDS011;204;48.942;9.256;2022-09-14T17:49:15;4.57;;;2.20;;
434;SDS011;204;48.942;9.256;2022-09-14T17:51:41;2.70;;;2.37;;
434;SDS011;204;48.942;9.256;2022-09-14T17:54:09;3.23;;;1.87;;
434;SDS011;204;48.942;9.256;2022-09-14T17:56:36;2.17;;;2.00;;
434;SDS011;204;48.942;9.256;2022-09-14T17:59:03;3.27;;;2.03;;
434;SDS011;204;48.942;9.256;2022-09-14T18:01:31;6.47;;;2.57;;
434;SDS011;204;48.942;9.256;2022-09-14T18:03:59;4.40;;;3.17;;
434;SDS011;204;48.942;9.256;2022-09-14T18:06:32;2.50;;;2.30;;
434;SDS011;204;48.942;9.256;2022-09-14T18:09:00;2.90;;;2.27;;
434;SDS011;204;48.942;9.256;2022-09-14T18:11:28;2.73;;;2.47;;
434;SDS011;204;48.942;9.256;2022-09-14T18:13:55;3.57;;;2.43;;
434;SDS011;204;48.942;9.256;2022-09-14T18:16:21;7.27;;;3.33;;
434;SDS011;204;48.942;9.256;2022-09-14T18:18:48;3.07;;;2.87;;
434;SDS011;204;48.942;9.256;2022-09-14T18:21:14;3.30;;;3.00;;
434;SDS011;204;48.942;9.256;2022-09-14T18:23:42;7.03;;;3.20;;
434;SDS011;204;48.942;9.256;2022-09-14T18:26:11;3.00;;;2.80;;
434;SDS011;204;48.942;9.256;2022-09-14T18:28:37;3.53;;;3.20;;
434;SDS011;204;48.942;9.256;2022-09-14T18:31:07;5.20;;;3.30;;
434;SDS011;204;48.942;9.256;2022-09-14T18:33:34;4.83;;;2.57;;
434;SDS011;204;48.942;9.256;2022-09-14T18:36:01;3.70;;;2.93;;
434;SDS011;204;48.942;9.256;2022-09-14T18:38:27;3.93;;;3.40;;
434;SDS011;204;48.942;9.256;2022-09-14T18:40:54;6.77;;;3.17;;
434;SDS011;204;48.942;9.256;2022-09-14T18:43:26;11.50;;;3.73;;
434;SDS011;204;48.942;9.256;2022-09-14T18:45:51;4.00;;;3.50;;